Time;durP1;ratioP1;P1;durP2;ratioP2;P2;SDS_P1;SDS_P2;PMS_P1;PMS_P2;Temp;Humidity;BMP_temperature;BMP_pressure;BME280_temperature;BME280_humidity;BME280_pressure;Samples;Min_cycle;Max_cycle;Signal;HPM_P1;HPM_P2
2021/12/02 00:02:10;;;;;;;14.70;7.95;;;;;;;7.03;100.00;98870.63;8339813;28;20091;-63
2021/12/02 00:06:14;;;;;;;16.88;9.15;;;;;;;7.05;100.00;98871.34;8338707;28;20446;-63
2021/12/02 00:10:14;;;;;;;20.17;8.82;;;;;;;7.15;100.00;98880.97;8337703;28;20477;-63
2021/12/02 00:14:21;;;;;;;21.65;10.25;;;;;;;7.16;100.00;98876.41;8324884;28;20404;-63
2021/12/02 00:23:05;;;;;;;17.35;9.63;;;;;;;7.12;100.00;98875.06;8371009;27;20427;-63
2021/12/02 00:27:09;;;;;;;14.85;9.52;;;;;;;7.03;100.00;98876.00;8374670;28;20045;-63
2021/12/02 00:31:15;;;;;;;16.95;9.52;;;;;;;6.94;100.00;98877.81;8365579;28;20107;-63
2021/12/02 00:35:16;;;;;;;15.77;9.63;;;;;;;6.94;100.00;98888.56;8345875;28;20056;-63
2021/12/02 00:39:19;;;;;;;19.80;9.98;;;;;;;6.93;100.00;98886.88;8373788;28;20037;-63
2021/12/02 00:43:20;;;;;;;18.90;9.48;;;;;;;7.01;100.00;98884.22;8373818;28;20067;-63
2021/12/02 00:47:21;;;;;;;21.45;9.60;;;;;;;7.01;100.00;98889.59;8373948;28;20041;-63
2021/12/02 00:51:26;;;;;;;17.55;9.05;;;;;;;7.05;100.00;98884.75;8374276;28;20390;-63
2021/12/02 00:55:27;;;;;;;18.58;9.43;;;;;;;7.11;100.00;98892.19;8373238;28;20056;-63
2021/12/02 00:59:29;;;;;;;16.15;8.18;;;;;;;7.09;100.00;98886.13;8373659;28;20037;-63
2021/12/02 01:03:33;;;;;;;15.45;7.80;;;;;;;7.05;100.00;98893.66;8346326;28;20107;-63
2021/12/02 01:07:33;;;;;;;14.52;7.65;;;;;;;7.05;100.00;98890.13;8340568;28;20088;-63
2021/12/02 01:11:34;;;;;;;16.00;6.95;;;;;;;7.09;100.00;98896.88;8339058;28;20112;-63
2021/12/02 01:15:35;;;;;;;11.25;5.90;;;;;;;7.10;100.00;98888.66;8340356;28;20045;-63
2021/12/02 01:19:35;;;;;;;11.30;5.70;;;;;;;7.11;100.00;98890.31;8340270;28;20095;-64
2021/12/02 01:23:36;;;;;;;16.35;5.90;;;;;;;7.09;100.00;98897.72;8338350;28;20045;-64
2021/12/02 01:27:39;;;;;;;11.98;6.30;;;;;;;7.06;100.00;98898.03;8353670;28;20042;-64
2021/12/02 01:31:41;;;;;;;9.63;5.95;;;;;;;7.09;100.00;98889.66;8353144;28;20034;-64
2021/12/02 01:35:47;;;;;;;15.80;7.38;;;;;;;7.08;100.00;98909.44;8338359;28;20038;-64
2021/12/02 01:39:48;;;;;;;9.25;6.47;;;;;;;7.03;100.00;98887.59;8318270;28;20077;-64
2021/12/02 01:43:52;;;;;;;12.88;6.65;;;;;;;7.05;100.00;98888.28;8318748;28;20054;-64
2021/12/02 01:47:54;;;;;;;16.63;7.65;;;;;;;7.02;100.00;98893.13;8333145;28;20109;-62
2021/12/02 01:51:55;;;;;;;11.82;6.43;;;;;;;7.02;100.00;98899.34;8343919;28;20047;-61
2021/12/02 01:56:09;;;;;;;18.60;7.95;;;;;;;7.05;100.00;98895.50;8351527;28;20034;-62
2021/12/02 02:00:15;;;;;;;14.18;6.97;;;;;;;7.05;100.00;98882.91;8351116;28;20428;-61
2021/12/02 02:04:16;;;;;;;15.93;8.40;;;;;;;7.07;100.00;98893.50;8318434;28;20042;-61
2021/12/02 02:08:21;;;;;;;13.00;7.47;;;;;;;7.04;100.00;98891.97;8318622;28;20401;-61
2021/12/02 02:12:22;;;;;;;15.02;8.80;;;;;;;7.08;100.00;98895.19;8318083;28;20069;-61
2021/12/02 02:16:23;;;;;;;13.77;5.82;;;;;;;7.09;100.00;98903.09;8321734;28;20407;-61
2021/12/02 02:20:37;;;;;;;12.27;5.30;;;;;;;7.04;100.00;98910.78;8325253;28;20044;-64
2021/12/02 02:24:37;;;;;;;22.20;6.93;;;;;;;6.97;100.00;98904.34;8317307;28;20038;-61
2021/12/02 02:28:38;;;;;;;15.27;5.90;;;;;;;6.91;100.00;98904.97;8318880;28;20036;-61
2021/12/02 02:32:38;;;;;;;10.02;5.40;;;;;;;6.82;100.00;98902.38;8317151;28;20092;-61
2021/12/02 02:36:50;;;;;;;12.73;4.65;;;;;;;6.78;100.00;98901.03;8318092;28;20029;-61
2021/12/02 02:40:50;;;;;;;13.77;4.07;;;;;;;6.76;100.00;98901.19;8316170;28;20037;-61
2021/12/02 02:44:51;;;;;;;12.82;4.70;;;;;;;6.75;100.00;98899.50;8316704;28;20544;-61
2021/12/02 02:48:54;;;;;;;12.82;4.22;;;;;;;6.72;100.00;98897.13;8317183;28;20037;-61
2021/12/02 02:53:12;;;;;;;10.98;3.72;;;;;;;6.75;100.00;98894.13;8321222;28;20070;-61
2021/12/02 02:57:15;;;;;;;10.75;3.60;;;;;;;6.66;100.00;98884.31;8287177;28;20030;-61
2021/12/02 03:05:37;;;;;;;9.20;3.55;;;;;;;6.64;100.00;98896.19;8326914;28;20045;-61
2021/12/02 03:09:49;;;;;;;8.43;3.03;;;;;;;6.58;100.00;98903.03;8332981;28;20038;-61
2021/12/02 03:13:51;;;;;;;7.53;3.00;;;;;;;6.55;100.00;98906.03;8321949;28;20607;-61
2021/12/02 03:17:52;;;;;;;8.77;3.28;;;;;;;6.58;100.00;98905.72;8318007;28;20037;-61
2021/12/02 03:21:53;;;;;;;11.15;4.50;;;;;;;6.52;100.00;98909.03;8313523;28;20038;-61
2021/12/02 03:25:54;;;;;;;14.85;4.40;;;;;;;6.52;100.00;98909.03;8318975;28;20573;-61
2021/12/02 03:29:54;;;;;;;14.77;4.82;;;;;;;6.48;100.00;98904.97;8315707;28;20508;-61
2021/12/02 03:33:55;;;;;;;7.85;3.78;;;;;;;6.47;100.00;98900.59;8314180;28;20072;-61
2021/12/02 03:37:55;;;;;;;9.32;3.53;;;;;;;6.41;100.00;98901.22;8331397;28;20038;-61
2021/12/02 03:41:56;;;;;;;6.70;2.25;;;;;;;6.34;100.00;98905.50;8325007;28;20084;-61
2021/12/02 03:45:57;;;;;;;8.95;1.80;;;;;;;6.33;100.00;98903.81;8315564;28;20057;-61
2021/12/02 03:49:57;;;;;;;8.27;1.98;;;;;;;6.35;100.00;98907.22;8315211;28;20500;-61
2021/12/02 03:53:59;;;;;;;4.95;2.20;;;;;;;6.38;100.00;98906.91;8312213;28;20046;-61
2021/12/02 03:57:59;;;;;;;5.22;1.88;;;;;;;6.38;100.00;98909.59;8333115;28;20048;-61
2021/12/02 04:02:00;;;;;;;8.27;2.25;;;;;;;6.34;100.00;98897.44;8322373;28;20533;-61
2021/12/02 04:06:02;;;;;;;6.70;2.10;;;;;;;6.35;100.00;98904.53;8304396;28;20398;-61
2021/12/02 04:10:03;;;;;;;6.70;2.83;;;;;;;6.34;100.00;98900.13;8304724;28;20044;-61
2021/12/02 04:18:27;;;;;;;11.18;3.30;;;;;;;6.36;100.00;98903.53;8422518;27;20428;-61
2021/12/02 04:22:27;;;;;;;9.82;4.00;;;;;;;6.35;100.00;98909.88;8416069;27;20043;-61
2021/12/02 04:26:28;;;;;;;8.60;3.42;;;;;;;6.40;100.00;98912.94;8416705;27;20039;-61
2021/12/02 04:30:29;;;;;;;7.78;3.35;;;;;;;6.43;100.00;98914.50;8416109;27;20036;-61
2021/12/02 04:34:29;;;;;;;11.70;3.88;;;;;;;6.45;100.00;98921.38;8410106;27;20075;-63
2021/12/02 04:38:30;;;;;;;7.53;3.95;;;;;;;6.47;100.00;98921.22;8380866;28;20084;-63
2021/12/02 04:42:30;;;;;;;8.30;3.88;;;;;;;6.46;100.00;98923.06;8363098;28;20143;-63
2021/12/02 04:46:31;;;;;;;14.20;3.70;;;;;;;6.43;100.00;98909.13;8365195;28;20041;-63
2021/12/02 04:50:31;;;;;;;6.20;2.25;;;;;;;6.36;100.00;98924.97;8367471;28;20042;-63
2021/12/02 04:54:32;;;;;;;7.68;2.05;;;;;;;6.35;100.00;98928.69;8361138;28;20416;-63
2021/12/02 04:58:32;;;;;;;9.63;1.63;;;;;;;6.37;100.00;98923.97;8360933;28;20075;-61
2021/12/02 05:02:33;;;;;;;8.50;1.67;;;;;;;6.37;100.00;98931.22;8363401;28;20043;-61
2021/12/02 05:06:33;;;;;;;8.77;2.08;;;;;;;6.24;100.00;98928.88;8394329;28;20650;-61
2021/12/02 05:10:33;;;;;;;7.80;1.70;;;;;;;6.17;100.00;98930.50;8391666;28;20029;-61
2021/12/02 05:14:34;;;;;;;9.70;1.88;;;;;;;6.18;100.00;98928.63;8366693;28;20512;-61
2021/12/02 05:18:34;;;;;;;8.15;2.10;;;;;;;6.17;100.00;98935.00;8371970;28;20493;-61
2021/12/02 05:22:35;;;;;;;13.18;2.20;;;;;;;6.18;100.00;98926.81;8362565;28;20060;-63
2021/12/02 05:26:36;;;;;;;11.63;2.83;;;;;;;6.21;100.00;98931.88;8358343;28;20398;-63
2021/12/02 05:30:36;;;;;;;10.88;2.90;;;;;;;6.23;100.00;98934.41;8347777;28;20037;-63
2021/12/02 05:34:37;;;;;;;13.75;3.88;;;;;;;6.29;100.00;98933.78;8348996;28;20041;-61
2021/12/02 05:38:38;;;;;;;5.07;2.85;;;;;;;6.30;100.00;98925.59;8336127;28;20573;-63
2021/12/02 05:42:38;;;;;;;7.93;3.30;;;;;;;6.31;100.00;98938.00;8337149;28;20237;-63
2021/12/02 05:46:39;;;;;;;10.98;4.13;;;;;;;6.33;100.00;98927.97;8344150;28;20037;-61
2021/12/02 05:50:39;;;;;;;9.93;4.40;;;;;;;6.34;100.00;98926.97;8346794;28;20049;-63
2021/12/02 05:54:40;;;;;;;8.40;3.60;;;;;;;6.34;100.00;98931.50;8352533;28;20037;-61
2021/12/02 05:58:41;;;;;;;14.05;4.20;;;;;;;6.31;100.00;98932.63;8342980;28;20128;-61
2021/12/02 06:02:41;;;;;;;10.10;3.22;;;;;;;6.29;100.00;98934.66;8345641;28;20073;-63
2021/12/02 06:06:42;;;;;;;15.90;4.28;;;;;;;6.27;100.00;98936.63;8345173;28;20374;-63
2021/12/02 06:10:42;;;;;;;12.98;5.22;;;;;;;6.26;100.00;98939.47;8359746;28;20040;-63
2021/12/02 06:14:43;;;;;;;11.68;4.55;;;;;;;6.20;100.00;98946.28;8344628;28;20050;-63
2021/12/02 06:18:43;;;;;;;14.65;5.10;;;;;;;6.17;100.00;98941.22;8361470;28;20091;-61
2021/12/02 06:22:45;;;;;;;15.80;4.72;;;;;;;6.10;100.00;98948.16;8349466;28;20043;-61
2021/12/02 06:26:46;;;;;;;12.55;4.72;;;;;;;6.08;100.00;98953.69;8379602;28;20173;-61
2021/12/02 06:30:47;;;;;;;14.20;4.22;;;;;;;5.97;100.00;98955.75;8363874;28;20073;-63
2021/12/02 06:34:47;;;;;;;9.70;4.20;;;;;;;5.94;100.00;98953.34;8351151;28;20037;-63
2021/12/02 06:38:47;;;;;;;9.23;4.57;;;;;;;5.95;100.00;98963.13;8364142;28;20195;-63
2021/12/02 06:42:48;;;;;;;14.18;5.68;;;;;;;5.94;100.00;98969.44;8368191;28;20037;-63
2021/12/02 06:46:48;;;;;;;8.52;4.82;;;;;;;5.90;100.00;98981.47;8364696;28;20047;-63
2021/12/02 06:50:49;;;;;;;11.52;4.55;;;;;;;5.88;100.00;98991.50;8365900;28;20033;-61
2021/12/02 06:54:49;;;;;;;16.92;4.95;;;;;;;5.88;100.00;98986.13;8338000;28;20045;-61
2021/12/02 06:58:50;;;;;;;14.93;4.80;;;;;;;5.89;100.00;98985.16;8369489;28;20264;-61
2021/12/02 07:02:52;;;;;;;10.38;4.90;;;;;;;5.83;100.00;98985.75;8368492;28;20033;-61
2021/12/02 07:06:52;;;;;;;10.95;4.93;;;;;;;5.83;100.00;98994.63;8352180;28;20052;-61
2021/12/02 07:10:53;;;;;;;12.90;4.78;;;;;;;5.83;100.00;98999.97;8350651;28;20067;-61
2021/12/02 07:14:53;;;;;;;16.30;4.90;;;;;;;5.81;100.00;99006.47;8336308;28;20041;-61
2021/12/02 07:18:56;;;;;;;7.85;3.00;;;;;;;5.60;100.00;99022.78;8352968;28;20078;-61
2021/12/02 07:22:58;;;;;;;1.60;0.75;;;;;;;5.01;100.00;99024.03;8361032;28;20237;-61
2021/12/02 07:26:58;;;;;;;0.80;0.50;;;;;;;4.37;100.00;99038.91;8349001;28;20038;-61
2021/12/02 07:30:59;;;;;;;0.90;0.30;;;;;;;4.16;100.00;99028.31;8349945;28;20559;-61
2021/12/02 07:35:02;;;;;;;3.05;0.57;;;;;;;4.23;100.00;99020.56;8348321;28;20047;-61
2021/12/02 07:39:06;;;;;;;2.28;0.60;;;;;;;4.38;100.00;99041.44;8335104;28;20056;-61
2021/12/02 07:43:07;;;;;;;4.05;0.85;;;;;;;4.53;100.00;99041.88;8348096;28;20036;-61
2021/12/02 07:47:07;;;;;;;4.10;2.03;;;;;;;4.60;100.00;99046.53;8377864;28;20032;-61
2021/12/02 07:51:12;;;;;;;6.43;2.60;;;;;;;4.68;100.00;99048.53;8381999;28;20264;-61
2021/12/02 07:55:15;;;;;;;7.70;3.30;;;;;;;4.76;100.00;99046.84;8364305;28;20029;-61
2021/12/02 07:59:17;;;;;;;12.30;6.20;;;;;;;4.92;100.00;99062.34;8375764;28;20056;-61
2021/12/02 08:03:17;;;;;;;16.35;6.55;;;;;;;5.00;100.00;99062.50;8375126;28;20047;-61
2021/12/02 08:07:18;;;;;;;17.63;6.10;;;;;;;5.03;100.00;99070.25;8382824;28;20037;-61
2021/12/02 08:11:18;;;;;;;11.32;5.88;;;;;;;5.03;100.00;99075.63;8372532;28;20037;-61
2021/12/02 08:15:22;;;;;;;6.88;4.85;;;;;;;4.97;100.00;99084.22;8357341;28;20482;-61
2021/12/02 08:19:23;;;;;;;8.27;4.70;;;;;;;4.90;100.00;99091.09;8341978;28;20045;-61
2021/12/02 08:23:23;;;;;;;4.07;2.65;;;;;;;4.84;100.00;99102.34;8343466;28;20060;-61
2021/12/02 08:27:24;;;;;;;5.97;3.15;;;;;;;4.87;100.00;99112.78;8375255;28;20096;-61
2021/12/02 08:31:25;;;;;;;7.22;3.72;;;;;;;4.87;100.00;99107.44;8372119;28;20549;-61
2021/12/02 08:35:26;;;;;;;11.88;5.05;;;;;;;4.89;100.00;99116.19;8343744;28;20048;-61
2021/12/02 08:39:29;;;;;;;7.18;4.60;;;;;;;4.83;100.00;99132.78;8352363;28;20045;-61
2021/12/02 08:43:30;;;;;;;8.43;4.75;;;;;;;4.72;100.00;99135.56;8373005;28;20087;-61
2021/12/02 08:47:30;;;;;;;8.65;4.68;;;;;;;4.73;100.00;99137.28;8352404;28;20363;-62
2021/12/02 08:51:31;;;;;;;8.82;3.97;;;;;;;4.81;100.00;99148.13;8343682;28;20037;-62
2021/12/02 08:55:31;;;;;;;7.65;4.85;;;;;;;4.83;100.00;99140.81;8354035;28;20045;-62
2021/12/02 08:59:32;;;;;;;7.53;4.40;;;;;;;4.85;100.00;99144.22;8362446;28;20086;-62
2021/12/02 09:03:33;;;;;;;10.95;3.95;;;;;;;4.81;100.00;99140.09;8373004;28;20071;-63
2021/12/02 09:07:34;;;;;;;7.07;3.72;;;;;;;4.74;100.00;99144.31;8369313;28;20039;-63
2021/12/02 09:11:34;;;;;;;5.85;2.97;;;;;;;4.78;100.00;99151.09;8372573;28;20033;-62
2021/12/02 09:15:37;;;;;;;9.85;5.57;;;;;;;6.19;100.00;99158.38;8364591;28;20041;-63
2021/12/02 09:19:37;;;;;;;7.45;5.22;;;;;;;8.25;97.26;99161.69;8375001;28;20033;-63
2021/12/02 09:23:38;;;;;;;6.30;3.05;;;;;;;7.04;96.30;99174.06;8359525;28;20037;-63
2021/12/02 09:27:39;;;;;;;6.80;3.35;;;;;;;5.94;100.00;99170.59;8364578;28;20064;-63
2021/12/02 09:31:40;;;;;;;9.93;4.90;;;;;;;5.50;100.00;99177.41;8358165;28;20040;-62
2021/12/02 09:35:40;;;;;;;7.55;5.82;;;;;;;5.58;100.00;99185.56;8365301;28;20033;-62
2021/12/02 09:39:40;;;;;;;13.05;6.65;;;;;;;5.37;100.00;99187.53;8349258;28;20045;-62
2021/12/02 09:43:41;;;;;;;9.02;5.82;;;;;;;5.32;100.00;99194.31;8375915;28;20052;-62
2021/12/02 09:47:45;;;;;;;10.50;5.63;;;;;;;5.26;100.00;99195.72;8369550;28;20091;-62
2021/12/02 09:51:58;;;;;;;11.35;6.60;;;;;;;5.18;100.00;99198.25;8340876;28;20326;-63
2021/12/02 09:56:18;;;;;;;13.10;7.00;;;;;;;5.17;100.00;99195.69;8356846;28;20044;-63
2021/12/02 10:00:24;;;;;;;8.88;6.25;;;;;;;5.19;100.00;99199.09;8360973;28;20053;-63
2021/12/02 10:04:26;;;;;;;9.60;5.82;;;;;;;6.43;100.00;99188.25;8370249;28;20080;-63
2021/12/02 10:08:31;;;;;;;5.97;2.50;;;;;;;8.41;91.49;99196.78;8366577;28;20040;-63
2021/12/02 10:12:35;;;;;;;3.90;1.27;;;;;;;9.26;83.55;99194.81;8350759;28;20409;-63
2021/12/02 10:16:39;;;;;;;7.65;1.35;;;;;;;8.72;84.19;99184.50;8354059;28;20037;-63
2021/12/02 10:20:45;;;;;;;;;;;;;;;9.35;84.48;99196.50;8357978;28;20040;-63
2021/12/02 10:24:46;;;;;;;5.45;2.05;;;;;;;10.96;78.32;99197.25;8354365;28;20052;-62
2021/12/02 10:28:51;;;;;;;7.53;1.58;;;;;;;10.77;75.79;99198.47;8359746;28;20045;-62
2021/12/02 10:32:52;;;;;;;2.75;1.20;;;;;;;11.00;76.14;99207.53;8357397;28;20053;-62
2021/12/02 10:36:56;;;;;;;5.30;1.42;;;;;;;11.52;72.54;99200.50;8347187;28;20103;-62
2021/12/02 10:40:59;;;;;;;3.55;1.40;;;;;;;9.79;75.94;99189.84;8344459;28;20048;-62
2021/12/02 10:45:02;;;;;;;2.92;1.40;;;;;;;7.94;83.01;99202.47;8368645;28;20041;-62
2021/12/02 10:49:05;;;;;;;1.60;1.13;;;;;;;9.30;81.03;99204.28;8355314;28;20269;-62
2021/12/02 10:53:06;;;;;;;1.55;1.15;;;;;;;10.96;74.76;99198.09;8371604;28;20041;-62
2021/12/02 10:57:11;;;;;;;4.68;1.60;;;;;;;11.02;73.72;99197.41;8356732;28;20044;-62
2021/12/02 11:01:39;;;;;;;4.40;1.20;;;;;;;9.01;77.98;99209.22;8345981;28;20433;-62
2021/12/02 11:05:46;;;;;;;7.22;2.35;;;;;;;7.30;86.69;99212.66;8366855;28;20429;-62
2021/12/02 11:09:48;;;;;;;2.90;2.38;;;;;;;7.20;89.97;99211.03;8360303;28;20044;-62
2021/12/02 11:13:49;;;;;;;6.07;2.95;;;;;;;7.39;87.72;99205.50;8357190;28;20376;-62
2021/12/02 11:17:52;;;;;;;4.28;3.33;;;;;;;7.29;91.09;99227.06;8366470;28;20041;-62
2021/12/02 11:22:05;;;;;;;7.07;4.10;;;;;;;6.94;92.31;99210.91;8356979;28;20041;-62
2021/12/02 11:26:11;;;;;;;4.25;3.80;;;;;;;8.19;87.05;99230.44;8355032;28;20630;-62
2021/12/02 11:30:18;;;;;;;6.88;3.42;;;;;;;9.53;82.68;99225.06;8356456;28;20040;-63
2021/12/02 11:34:30;;;;;;;6.40;3.05;;;;;;;9.33;79.77;99220.13;8351917;28;20036;-63
2021/12/02 11:38:32;;;;;;;4.10;2.90;;;;;;;10.14;78.63;99216.53;8359294;28;20045;-63
2021/12/02 11:42:35;;;;;;;7.05;2.65;;;;;;;10.86;73.93;99218.25;8343360;28;20060;-63
2021/12/02 11:46:36;;;;;;;8.65;2.58;;;;;;;9.99;76.66;99212.78;8345453;28;20044;-62
2021/12/02 11:50:37;;;;;;;7.55;3.03;;;;;;;9.41;78.49;99212.03;8344550;28;20041;-62
2021/12/02 11:54:38;;;;;;;4.28;2.05;;;;;;;10.52;76.31;99210.38;8348530;28;20071;-62
2021/12/02 11:58:39;;;;;;;7.18;2.40;;;;;;;9.31;77.09;99222.97;8368577;28;20036;-63
2021/12/02 12:02:48;;;;;;;3.15;2.47;;;;;;;7.92;80.33;99236.78;8360126;28;20170;-63
2021/12/02 12:07:10;;;;;;;9.00;2.08;;;;;;;6.73;85.08;99239.84;8364846;28;20496;-63
2021/12/02 12:11:29;;;;;;;10.63;1.90;;;;;;;6.25;86.69;99233.75;8369126;28;20040;-63
2021/12/02 12:15:33;;;;;;;10.65;2.40;;;;;;;6.35;88.27;99234.59;8338477;28;20455;-62
2021/12/02 12:19:41;;;;;;;9.32;3.00;;;;;;;7.02;87.46;99239.69;8350065;28;20042;-62
2021/12/02 12:23:45;;;;;;;7.93;2.40;;;;;;;6.96;88.05;99251.03;8363833;28;20528;-62
2021/12/02 12:27:57;;;;;;;12.90;2.42;;;;;;;6.56;87.84;99254.00;8355584;28;20043;-62
2021/12/02 12:36:39;;;;;;;4.05;1.67;;;;;;;6.29;90.87;99264.72;8432686;27;20416;-63
2021/12/02 12:40:42;;;;;;;4.93;1.67;;;;;;;6.22;90.13;99268.09;8395113;28;20444;-63
2021/12/02 12:44:52;;;;;;;2.65;1.20;;;;;;;6.22;90.58;99268.09;8386075;28;20123;-64
2021/12/02 12:48:56;;;;;;;3.28;1.60;;;;;;;6.18;89.80;99274.72;8384519;28;20041;-64
2021/12/02 12:57:19;;;;;;;9.32;3.90;;;;;;;6.01;92.40;99289.75;8333538;28;20429;-63
2021/12/02 13:01:24;;;;;;;8.25;4.68;;;;;;;5.89;92.78;99285.50;8332180;28;20056;-63
2021/12/02 13:10:10;;;;;;;6.25;4.30;;;;;;;5.81;91.10;99291.56;8365803;27;20390;-61
2021/12/02 13:14:13;;;;;;;5.35;3.22;;;;;;;5.70;91.04;99298.84;8351915;28;20247;-61
2021/12/02 13:18:31;;;;;;;12.88;4.70;;;;;;;5.73;91.11;99307.47;8344987;28;20067;-61
2021/12/02 13:22:31;;;;;;;4.90;2.45;;;;;;;5.82;91.15;99305.81;8365023;28;20662;-62
2021/12/02 13:26:35;;;;;;;6.85;2.67;;;;;;;5.80;87.88;99313.13;8358042;28;20052;-62
2021/12/02 13:30:36;;;;;;;3.67;2.25;;;;;;;5.82;88.49;99305.81;8341815;28;20041;-62
2021/12/02 13:34:37;;;;;;;4.43;2.65;;;;;;;5.82;88.84;99313.84;8348778;28;20068;-61
2021/12/02 13:38:40;;;;;;;4.35;3.17;;;;;;;5.83;90.02;99320.94;8345625;28;20424;-61
2021/12/02 13:42:41;;;;;;;12.43;3.83;;;;;;;5.75;91.76;99320.72;8364003;28;20037;-63
2021/12/02 13:46:46;;;;;;;10.35;4.28;;;;;;;5.73;91.89;99328.06;8357733;28;20059;-61
2021/12/02 13:50:49;;;;;;;7.10;3.67;;;;;;;5.76;93.22;99327.78;8347930;28;20041;-61
2021/12/02 13:54:56;;;;;;;6.03;3.80;;;;;;;5.64;93.88;99344.97;8356790;28;20654;-64
2021/12/02 13:59:14;;;;;;;5.95;3.65;;;;;;;5.58;94.06;99346.38;8354760;28;20050;-61
2021/12/02 14:03:19;;;;;;;6.50;3.67;;;;;;;5.60;94.31;99356.97;8342275;28;20044;-61
2021/12/02 14:07:23;;;;;;;6.38;3.45;;;;;;;5.57;94.46;99352.75;8341738;28;20033;-61
2021/12/02 14:11:23;;;;;;;10.50;3.83;;;;;;;5.56;95.02;99367.13;8338319;28;20147;-61
2021/12/02 14:15:26;;;;;;;3.45;2.88;;;;;;;5.53;94.81;99371.91;8348002;28;20029;-61
2021/12/02 14:19:26;;;;;;;7.00;3.60;;;;;;;5.49;94.69;99387.41;8348149;28;20269;-61
2021/12/02 14:23:36;;;;;;;6.75;3.28;;;;;;;5.52;95.07;99394.34;8336228;28;20421;-61
2021/12/02 14:27:37;;;;;;;10.98;4.32;;;;;;;5.53;94.89;99396.03;8338401;28;20393;-62
2021/12/02 14:31:39;;;;;;;7.07;3.47;;;;;;;5.55;95.21;99410.16;8337921;28;20057;-62
2021/12/02 14:35:52;;;;;;;8.73;3.85;;;;;;;5.62;95.63;99405.94;8347352;28;20127;-62
2021/12/02 14:39:53;;;;;;;9.40;3.78;;;;;;;5.60;95.27;99419.47;8344813;28;20425;-62
2021/12/02 14:43:56;;;;;;;12.65;4.30;;;;;;;5.60;95.81;99423.97;8338704;28;20056;-62
2021/12/02 14:47:57;;;;;;;14.48;5.07;;;;;;;5.60;95.34;99418.63;8338577;28;20041;-62
2021/12/02 14:52:04;;;;;;;10.48;4.68;;;;;;;5.60;95.51;99434.72;8340838;28;20043;-62
2021/12/02 14:56:33;;;;;;;10.52;4.82;;;;;;;5.63;95.90;99437.13;8340717;28;20107;-62
2021/12/02 15:00:34;;;;;;;6.18;4.50;;;;;;;5.65;95.97;99445.88;8336542;28;20566;-62
2021/12/02 15:04:50;;;;;;;6.45;4.70;;;;;;;5.53;96.00;99438.91;8329029;28;20378;-62
2021/12/02 15:08:50;;;;;;;14.25;5.38;;;;;;;5.44;96.97;99445.94;8328175;28;20037;-62
2021/12/02 15:12:55;;;;;;;11.98;5.22;;;;;;;5.33;97.00;99454.06;8336805;28;20044;-62
2021/12/02 15:16:55;;;;;;;13.35;5.85;;;;;;;5.22;97.72;99461.34;8337927;28;20037;-62
2021/12/02 15:20:59;;;;;;;13.23;5.68;;;;;;;5.10;98.87;99467.75;8338361;28;20040;-62
2021/12/02 15:25:08;;;;;;;12.02;5.32;;;;;;;5.09;99.52;99471.44;8336571;28;20029;-62
2021/12/02 15:29:08;;;;;;;9.90;5.10;;;;;;;5.10;99.41;99483.81;8338177;28;20075;-62
2021/12/02 15:33:11;;;;;;;9.32;5.07;;;;;;;5.16;100.00;99489.50;8330337;28;20127;-62
2021/12/02 15:37:11;;;;;;;9.38;4.45;;;;;;;5.19;99.73;99491.91;8327356;28;20040;-62
2021/12/02 15:41:15;;;;;;;12.15;5.10;;;;;;;5.24;100.00;99510.25;8336611;28;20047;-62
2021/12/02 15:45:15;;;;;;;9.18;5.35;;;;;;;5.26;100.00;99511.00;8316380;28;20282;-62
2021/12/02 15:49:19;;;;;;;12.38;5.88;;;;;;;5.35;100.00;99520.91;8318688;28;20037;-62
2021/12/02 15:53:20;;;;;;;14.68;5.32;;;;;;;5.38;100.00;99528.69;8331008;28;20049;-62
2021/12/02 15:57:20;;;;;;;7.43;4.15;;;;;;;5.30;99.28;99528.50;8328292;28;20048;-62
2021/12/02 16:01:27;;;;;;;5.53;3.05;;;;;;;5.12;99.21;99546.16;8321228;28;20052;-62
2021/12/02 16:05:47;;;;;;;9.23;3.40;;;;;;;4.99;100.00;99556.19;8321830;28;20041;-62
2021/12/02 16:14:09;;;;;;;6.43;2.90;;;;;;;4.74;100.00;99564.56;8337697;28;20489;-62
2021/12/02 16:18:09;;;;;;;5.88;2.75;;;;;;;4.82;99.30;99586.22;8332439;28;20041;-62
2021/12/02 16:22:10;;;;;;;4.22;2.08;;;;;;;4.65;99.32;99586.75;8338047;28;20101;-62
2021/12/02 16:26:12;;;;;;;3.22;1.90;;;;;;;4.46;100.00;99583.88;8333311;28;20034;-62
2021/12/02 16:30:14;;;;;;;4.32;2.00;;;;;;;4.48;100.00;99598.00;8325195;28;20403;-62
2021/12/02 16:34:15;;;;;;;2.78;1.60;;;;;;;4.58;99.49;99609.66;8337801;28;20137;-62
2021/12/02 16:38:15;;;;;;;3.63;1.80;;;;;;;4.63;99.36;99615.50;8336364;28;20053;-62
2021/12/02 16:42:16;;;;;;;5.13;2.05;;;;;;;4.70;98.80;99624.72;8327997;28;20045;-62
2021/12/02 16:46:16;;;;;;;4.95;2.35;;;;;;;4.78;98.41;99638.31;8318509;28;20041;-62
2021/12/02 16:50:19;;;;;;;5.32;2.38;;;;;;;4.76;98.31;99640.28;8312431;28;20068;-62
2021/12/02 16:54:19;;;;;;;3.92;2.05;;;;;;;4.81;98.47;99648.75;8325169;28;20116;-62
2021/12/02 16:58:19;;;;;;;7.15;2.47;;;;;;;4.93;98.28;99663.81;8330079;28;20052;-62
2021/12/02 17:02:20;;;;;;;3.05;2.20;;;;;;;4.90;98.80;99664.94;8329094;28;20061;-62
2021/12/02 17:06:20;;;;;;;3.63;2.47;;;;;;;4.86;99.05;99676.03;8322514;28;20744;-62
2021/12/02 17:10:25;;;;;;;3.97;2.95;;;;;;;4.84;98.63;99694.03;8320381;28;20045;-62
2021/12/02 17:14:29;;;;;;;4.43;2.58;;;;;;;4.83;99.34;99695.00;8333455;28;20086;-62
2021/12/02 17:18:29;;;;;;;6.88;3.83;;;;;;;4.72;98.89;99703.03;8334428;28;20045;-62
2021/12/02 17:22:29;;;;;;;7.65;3.88;;;;;;;4.67;99.94;99700.75;8333804;28;20049;-62
2021/12/02 17:26:30;;;;;;;5.22;4.32;;;;;;;4.62;100.00;99707.44;8334098;28;20049;-62
2021/12/02 17:30:32;;;;;;;10.25;5.07;;;;;;;4.64;100.00;99721.56;8330857;28;20045;-62
2021/12/02 17:34:33;;;;;;;10.30;5.50;;;;;;;4.62;100.00;99720.84;8333503;28;20432;-62
2021/12/02 17:38:34;;;;;;;10.13;6.18;;;;;;;4.68;100.00;99729.22;8330663;28;20056;-62
2021/12/02 17:42:35;;;;;;;9.35;5.97;;;;;;;4.74;100.00;99742.13;8333858;28;20513;-62
2021/12/02 17:46:37;;;;;;;11.98;6.82;;;;;;;4.69;100.00;99748.78;8330451;28;20069;-62
2021/12/02 17:50:40;;;;;;;11.90;8.15;;;;;;;4.68;100.00;99747.09;8336131;28;20041;-62
2021/12/02 17:54:43;;;;;;;16.73;9.23;;;;;;;4.72;100.00;99761.94;8335046;28;20065;-62
2021/12/02 17:58:43;;;;;;;13.27;8.40;;;;;;;4.68;100.00;99765.84;8341266;28;20368;-62
2021/12/02 18:02:44;;;;;;;16.17;9.60;;;;;;;4.66;100.00;99775.84;8337521;28;20037;-62
2021/12/02 18:06:44;;;;;;;19.98;10.75;;;;;;;4.59;100.00;99777.28;8327915;28;20468;-62
2021/12/02 18:10:45;;;;;;;19.17;10.55;;;;;;;4.56;100.00;99782.88;8338848;28;20385;-62
2021/12/02 18:14:45;;;;;;;22.83;11.23;;;;;;;4.41;100.00;99784.94;8338811;28;20553;-62
2021/12/02 18:18:46;;;;;;;16.77;9.68;;;;;;;4.31;100.00;99793.78;8322095;28;20160;-62
2021/12/02 18:22:46;;;;;;;19.92;11.27;;;;;;;4.26;100.00;99795.97;8333520;28;20064;-62
2021/12/02 18:26:47;;;;;;;19.10;9.73;;;;;;;4.23;100.00;99812.25;8324594;28;20045;-62
2021/12/02 18:30:47;;;;;;;17.83;10.85;;;;;;;4.06;100.00;99814.41;8311630;28;20041;-62
2021/12/02 18:34:49;;;;;;;18.00;10.35;;;;;;;4.01;100.00;99823.75;8339554;28;20038;-62
2021/12/02 18:38:50;;;;;;;19.92;11.38;;;;;;;4.03;100.00;99833.34;8336673;28;20093;-62
2021/12/02 18:42:50;;;;;;;15.52;9.70;;;;;;;3.99;100.00;99847.94;8322980;28;20064;-62
2021/12/02 18:46:50;;;;;;;16.58;10.13;;;;;;;4.01;100.00;99856.69;8314346;28;20030;-62
2021/12/02 18:50:51;;;;;;;23.38;11.10;;;;;;;4.20;100.00;99858.00;8323594;28;20665;-62
2021/12/02 18:54:52;;;;;;;15.77;10.25;;;;;;;4.23;100.00;99871.97;8302566;28;20034;-62
2021/12/02 18:58:52;;;;;;;22.52;10.95;;;;;;;4.09;100.00;99881.03;8309433;28;20042;-62
2021/12/02 19:02:56;;;;;;;18.05;11.25;;;;;;;4.01;100.00;99882.59;8335313;28;20033;-62
2021/12/02 19:07:05;;;;;;;18.40;12.07;;;;;;;3.88;100.00;99890.66;8317650;28;20041;-62
2021/12/02 19:28:32;;;;;;;24.17;13.02;;;;;;;3.34;100.00;99918.75;8429214;27;20408;-63
2021/12/02 19:32:33;;;;;;;26.75;14.73;;;;;;;3.23;100.00;99921.31;8424473;28;20036;-63
2021/12/02 19:36:34;;;;;;;25.67;14.05;;;;;;;3.23;100.00;99921.31;8410034;28;20043;-63
2021/12/02 19:40:36;;;;;;;24.45;14.20;;;;;;;3.18;100.00;99927.97;8393456;28;20111;-63
2021/12/02 19:44:36;;;;;;;25.08;13.48;;;;;;;3.03;100.00;99940.59;8424509;28;20062;-61
2021/12/02 19:48:36;;;;;;;21.65;12.82;;;;;;;2.87;100.00;99945.25;8402036;28;20037;-61